createdAt,value
2022-10-23T00:00:36.709Z,100264.53
2022-10-23T00:03:03.402Z,100268.16
2022-10-23T00:05:30.359Z,100274.84
2022-10-23T00:07:59.575Z,100275.03
2022-10-23T00:10:27.937Z,100268.88
2022-10-23T00:12:54.361Z,100269.13
2022-10-23T00:15:22.910Z,100267.59
2022-10-23T00:17:49.781Z,100262.56
2022-10-23T00:20:17.046Z,100256.41
2022-10-23T00:22:43.399Z,100260.63
2022-10-23T00:25:10.808Z,100254.66
2022-10-23T00:27:37.606Z,100251.41
2022-10-23T00:30:05.564Z,100256.75
2022-10-23T00:35:03.386Z,100257.69
2022-10-23T00:37:29.811Z,100249.94
2022-10-23T00:39:56.283Z,100252.34
2022-10-23T00:42:22.777Z,100243.84
2022-10-23T00:44:49.057Z,100246.19
2022-10-23T00:47:15.579Z,100238.03
2022-10-23T00:49:42.827Z,100234.66
2022-10-23T00:52:13.114Z,100226.19
2022-10-23T00:54:43.589Z,100220.03
2022-10-23T00:57:14.341Z,100221.06
2022-10-23T00:59:40.891Z,100216.72
2022-10-23T01:02:08.983Z,100210.72
2022-10-23T01:04:37.115Z,100213.94
2022-10-23T01:07:09.958Z,100213.47
2022-10-23T01:09:36.225Z,100217.19
2022-10-23T01:12:17.077Z,100219.91
2022-10-23T01:14:48.890Z,100226.88
2022-10-23T01:17:40.841Z,100221.69
2022-10-23T01:20:13.110Z,100225.84
2022-10-23T01:23:07.399Z,100234.94
2022-10-23T01:26:09.882Z,100238.22
2022-10-23T01:28:42.891Z,100236.03
2022-10-23T01:31:14.266Z,100235.22
2022-10-23T01:33:51.241Z,100230.72
2022-10-23T01:36:23.792Z,100220.09
2022-10-23T01:38:56.483Z,100223.38
2022-10-23T01:41:29.476Z,100224.59
2022-10-23T01:44:05.404Z,100213.47
2022-10-23T01:46:35.433Z,100220.50
2022-10-23T01:49:02.907Z,100213.28
2022-10-23T01:51:33.133Z,100194.84
2022-10-23T01:54:01.107Z,100183.91
2022-10-23T01:56:32.719Z,100167.25
2022-10-23T01:59:04.440Z,100175.41
2022-10-23T02:01:32.982Z,100179.97
2022-10-23T02:04:03.006Z,100171.66
2022-10-23T02:06:29.430Z,100175.06
2022-10-23T02:08:56.235Z,100170.31
2022-10-23T02:11:23.046Z,100171.97
2022-10-23T02:13:59.782Z,100187.22
2022-10-23T02:16:42.739Z,100183.75
2022-10-23T02:19:43.515Z,100184.66
2022-10-23T02:22:16.564Z,100181.53
2022-10-23T02:24:57.961Z,100178.00
2022-10-23T02:27:30.304Z,100172.50
2022-10-23T02:30:07.660Z,100179.41
2022-10-23T02:32:35.889Z,100172.22
2022-10-23T02:35:02.691Z,100168.66
2022-10-23T02:37:29.163Z,100171.03
2022-10-23T02:39:55.738Z,100175.88
2022-10-23T02:42:26.088Z,100173.88
2022-10-23T02:45:27.679Z,100183.00
2022-10-23T02:48:04.463Z,100184.09
2022-10-23T02:50:55.343Z,100175.41
2022-10-23T02:53:39.971Z,100157.25
2022-10-23T02:56:36.594Z,100154.94
2022-10-23T02:59:31.100Z,100149.09
2022-10-23T03:02:03.128Z,100145.09
2022-10-23T03:04:32.310Z,100153.38
2022-10-23T03:06:59.028Z,100140.00
2022-10-23T03:09:26.546Z,100134.13
2022-10-23T03:11:52.957Z,100140.72
2022-10-23T03:14:19.732Z,100135.34
2022-10-23T03:16:46.097Z,100131.06
2022-10-23T03:21:43.975Z,100132.38
2022-10-23T03:24:10.340Z,100138.47
2022-10-23T03:26:36.765Z,100135.66
2022-10-23T03:29:03.190Z,100132.31
2022-10-23T03:31:29.547Z,100124.44
2022-10-23T03:33:55.997Z,100126.13
2022-10-23T03:36:22.434Z,100119.97
2022-10-23T03:38:48.877Z,100122.03
2022-10-23T03:41:15.385Z,100135.44
2022-10-23T03:43:41.752Z,100139.84
2022-10-23T03:46:12.289Z,100137.13
2022-10-23T03:48:39.107Z,100136.94
2022-10-23T03:51:06.304Z,100128.78
2022-10-23T03:53:32.663Z,100122.75
2022-10-23T03:55:59.121Z,100122.03
2022-10-23T03:58:25.453Z,100133.72
2022-10-23T04:00:51.901Z,100134.56
2022-10-23T04:03:18.318Z,100138.22
2022-10-23T04:05:44.655Z,100136.19
2022-10-23T04:08:11.111Z,100137.25
2022-10-23T04:10:37.471Z,100139.91
2022-10-23T04:13:03.834Z,100147.31
2022-10-23T04:15:30.180Z,100124.84
2022-10-23T04:17:56.555Z,100109.41
2022-10-23T04:20:22.927Z,100113.00
2022-10-23T04:22:49.254Z,100120.75
2022-10-23T04:25:16.603Z,100120.28
2022-10-23T04:27:43.256Z,100125.59
2022-10-23T04:30:10.389Z,100118.38
2022-10-23T04:32:36.952Z,100129.59
2022-10-23T04:35:03.518Z,100128.72
2022-10-23T04:37:29.950Z,100128.09
2022-10-23T04:39:56.301Z,100137.81
2022-10-23T04:42:22.725Z,100134.97
2022-10-23T04:44:49.186Z,100129.97
2022-10-23T04:47:15.508Z,100137.75
2022-10-23T04:49:41.849Z,100139.66
2022-10-23T04:52:08.199Z,100131.53
2022-10-23T04:54:38.953Z,100128.13
2022-10-23T04:57:05.381Z,100121.50
2022-10-23T04:59:31.747Z,100118.41
2022-10-23T05:01:58.169Z,100120.41
2022-10-23T05:04:24.537Z,100116.06
2022-10-23T05:06:50.975Z,100112.53
2022-10-23T05:09:17.367Z,100106.44
2022-10-23T05:11:43.736Z,100104.84
2022-10-23T05:14:10.129Z,100100.31
2022-10-23T05:16:45.516Z,100094.47
2022-10-23T05:19:21.925Z,100092.22
2022-10-23T05:21:55.697Z,100095.53
2022-10-23T05:24:26.365Z,100092.78
2022-10-23T05:26:53.431Z,100092.91
2022-10-23T05:29:20.565Z,100084.53
2022-10-23T05:31:52.393Z,100085.38
2022-10-23T05:34:22.371Z,100081.28
2022-10-23T05:36:49.156Z,100079.34
2022-10-23T05:39:16.054Z,100082.63
2022-10-23T05:41:42.408Z,100083.28
2022-10-23T05:44:08.742Z,100079.94
2022-10-23T05:46:35.147Z,100076.34
2022-10-23T05:49:01.530Z,100076.47
2022-10-23T05:51:27.915Z,100077.97
2022-10-23T05:53:55.045Z,100071.31
2022-10-23T05:56:21.378Z,100072.28
2022-10-23T05:58:47.782Z,100075.94
2022-10-23T06:01:14.907Z,100065.75
2022-10-23T06:03:41.418Z,100070.50
2022-10-23T06:06:08.098Z,100076.34
2022-10-23T06:08:35.520Z,100073.00
2022-10-23T06:11:09.871Z,100073.09
2022-10-23T06:13:36.985Z,100066.53
2022-10-23T06:16:11.510Z,100063.31
2022-10-23T06:18:37.878Z,100068.91
2022-10-23T06:21:04.451Z,100063.56
2022-10-23T06:23:32.550Z,100062.41
2022-10-23T06:25:59.356Z,100055.34
2022-10-23T06:28:26.357Z,100057.03
2022-10-23T06:30:52.764Z,100064.44
2022-10-23T06:33:19.294Z,100060.00
2022-10-23T06:35:46.256Z,100071.06
2022-10-23T06:38:12.776Z,100069.22
2022-10-23T06:40:39.164Z,100068.41
2022-10-23T06:43:05.739Z,100080.03
2022-10-23T06:45:36.662Z,100079.34
2022-10-23T06:48:03.148Z,100078.25
2022-10-23T06:50:32.120Z,100086.72
2022-10-23T06:52:58.481Z,100071.69
2022-10-23T06:55:25.058Z,100071.94
2022-10-23T06:57:51.403Z,100075.53
2022-10-23T07:00:17.876Z,100075.00
2022-10-23T07:02:44.614Z,100065.00
2022-10-23T07:05:13.598Z,100072.13
2022-10-23T07:07:40.598Z,100053.44
2022-10-23T07:10:07.798Z,100059.94
2022-10-23T07:12:34.227Z,100064.75
2022-10-23T07:15:00.612Z,100065.13
2022-10-23T07:17:29.177Z,100068.09
2022-10-23T07:19:55.533Z,100067.94
2022-10-23T07:22:21.889Z,100065.13
2022-10-23T07:24:48.204Z,100062.03
2022-10-23T07:27:14.553Z,100063.16
2022-10-23T07:29:42.005Z,100054.06
2022-10-23T07:32:09.111Z,100071.88
2022-10-23T07:34:36.826Z,100067.59
2022-10-23T07:37:03.203Z,100067.59
2022-10-23T07:39:29.521Z,100068.22
2022-10-23T07:41:55.880Z,100064.75
2022-10-23T07:44:24.380Z,100070.13
2022-10-23T07:46:53.321Z,100077.06
2022-10-23T07:49:19.786Z,100079.75
2022-10-23T07:51:50.449Z,100075.34
2022-10-23T07:54:18.164Z,100063.91
2022-10-23T07:56:44.570Z,100049.69
2022-10-23T07:59:13.221Z,100058.97
2022-10-23T08:01:42.381Z,100065.34
2022-10-23T08:04:10.298Z,100058.44
2022-10-23T08:06:36.674Z,100052.63
2022-10-23T08:09:06.318Z,100051.09
2022-10-23T08:11:35.443Z,100051.94
2022-10-23T08:14:06.518Z,100047.16
2022-10-23T08:16:34.982Z,100042.22
2022-10-23T08:19:01.896Z,100022.31
2022-10-23T08:21:28.924Z,100010.03
2022-10-23T08:23:57.422Z,100019.06
2022-10-23T08:26:25.096Z,100030.84
2022-10-23T08:28:52.899Z,100016.91
2022-10-23T08:31:20.791Z,100033.09
2022-10-23T08:33:47.258Z,100022.88
2022-10-23T08:36:25.260Z,100041.25
2022-10-23T08:38:56.063Z,100040.75
2022-10-23T08:41:27.515Z,100036.84
2022-10-23T08:44:17.046Z,100031.53
2022-10-23T08:46:59.203Z,100031.81
2022-10-23T08:49:50.505Z,100029.84
2022-10-23T08:52:48.907Z,100032.09
2022-10-23T08:55:26.167Z,100010.88
2022-10-23T08:57:59.855Z,100007.03
2022-10-23T09:00:26.425Z,100013.72
2022-10-23T09:02:54.410Z,100009.50
2022-10-23T09:05:49.890Z,100010.91
2022-10-23T09:08:43.772Z,100000.44
2022-10-23T09:11:21.920Z,100014.88
2022-10-23T09:14:24.999Z,100008.53
2022-10-23T09:17:04.842Z,100007.38
2022-10-23T09:19:32.005Z,100007.47
2022-10-23T09:21:58.540Z,100014.03
2022-10-23T09:24:28.333Z,100005.19
2022-10-23T09:26:54.798Z,100019.56
2022-10-23T09:29:32.701Z,100016.75
2022-10-23T09:32:01.667Z,100011.88
2022-10-23T09:34:30.552Z,100012.09
2022-10-23T09:37:00.032Z,99999.91
2022-10-23T09:39:29.817Z,99990.28
2022-10-23T09:41:57.453Z,99981.97
2022-10-23T09:44:29.778Z,99967.19
2022-10-23T09:47:08.335Z,99964.03
2022-10-23T09:49:35.068Z,99967.75
2022-10-23T09:52:10.615Z,99964.59
2022-10-23T09:54:46.926Z,99958.25
2022-10-23T09:57:22.221Z,99968.53
2022-10-23T09:59:54.347Z,99958.59
2022-10-23T10:02:36.002Z,99965.53
2022-10-23T10:05:26.212Z,99980.97
2022-10-23T10:07:59.890Z,99971.13
2022-10-23T10:10:34.794Z,99974.25
2022-10-23T10:13:14.251Z,99971.09
2022-10-23T10:15:52.766Z,99968.06
2022-10-23T10:18:24.940Z,99961.84
2022-10-23T10:21:05.352Z,99968.06
2022-10-23T10:23:43.649Z,99967.66
2022-10-23T10:29:14.442Z,99956.66
2022-10-23T10:31:56.835Z,99947.44
2022-10-23T10:34:41.401Z,99949.91
2022-10-23T10:37:26.002Z,99948.16
2022-10-23T10:40:02.573Z,99950.38
2022-10-23T10:42:45.515Z,99939.81
2022-10-23T10:45:53.519Z,99925.09
2022-10-23T10:48:28.512Z,99905.28
2022-10-23T10:51:02.217Z,99890.41
2022-10-23T10:53:47.180Z,99887.72
2022-10-23T10:56:15.892Z,99878.84
2022-10-23T10:58:50.556Z,99864.91
2022-10-23T11:01:27.202Z,99883.84
2022-10-23T11:04:01.756Z,99904.56
2022-10-23T11:06:31.873Z,99914.84
2022-10-23T11:09:19.738Z,99908.69
2022-10-23T11:11:48.538Z,99904.81
2022-10-23T11:14:21.272Z,99915.03
2022-10-23T11:16:53.317Z,99916.59
2022-10-23T11:19:26.681Z,99916.50
2022-10-23T11:22:21.705Z,99901.03
2022-10-23T11:24:55.802Z,99894.91
2022-10-23T11:28:01.685Z,99885.78
2022-10-23T11:30:42.673Z,99889.19
2022-10-23T11:33:29.976Z,99890.41
2022-10-23T11:36:17.240Z,99865.13
2022-10-23T11:38:47.388Z,99864.69
2022-10-23T11:41:26.423Z,99872.47
2022-10-23T11:44:03.477Z,99866.69
2022-10-23T11:46:35.839Z,99859.53
2022-10-23T11:49:05.937Z,99859.81
2022-10-23T11:51:38.033Z,99855.88
2022-10-23T11:54:10.416Z,99838.31
2022-10-23T11:56:38.625Z,99825.91
2022-10-23T11:59:50.538Z,99831.59
2022-10-23T12:02:34.357Z,99833.69
2022-10-23T12:05:06.640Z,99827.53
2022-10-23T12:07:38.499Z,99825.84
2022-10-23T12:10:17.469Z,99817.88
2022-10-23T12:13:01.073Z,99805.56
2022-10-23T12:15:28.370Z,99805.59
2022-10-23T12:18:07.432Z,99797.59
2022-10-23T12:20:50.337Z,99774.50
2022-10-23T12:23:31.701Z,99778.56
2022-10-23T12:26:07.583Z,99782.03
2022-10-23T12:28:56.970Z,99760.72
2022-10-23T12:31:45.625Z,99757.78
2022-10-23T12:34:24.012Z,99763.94
2022-10-23T12:37:26.889Z,99766.88
2022-10-23T12:39:55.825Z,99753.91
2022-10-23T12:42:27.833Z,99751.03
2022-10-23T12:45:02.416Z,99758.66
2022-10-23T12:47:30.091Z,99750.28
2022-10-23T12:49:56.503Z,99756.09
2022-10-23T12:52:25.196Z,99748.38
2022-10-23T12:54:51.787Z,99751.22
2022-10-23T12:57:30.099Z,99752.09
2022-10-23T13:00:00.673Z,99743.06
2022-10-23T13:02:29.754Z,99737.75
2022-10-23T13:05:00.172Z,99739.34
2022-10-23T13:07:29.314Z,99736.41
2022-10-23T13:09:57.403Z,99722.38
2022-10-23T13:12:27.175Z,99717.97
2022-10-23T13:14:59.024Z,99709.59
2022-10-23T13:17:36.367Z,99693.94
2022-10-23T13:20:11.337Z,99684.50
2022-10-23T13:22:40.577Z,99677.69
2022-10-23T13:25:24.947Z,99664.09
2022-10-23T13:27:51.759Z,99655.91
2022-10-23T13:30:33.249Z,99655.84
2022-10-23T13:33:00.620Z,99660.09
2022-10-23T13:35:27.480Z,99662.66
2022-10-23T13:37:53.909Z,99639.69
2022-10-23T13:40:26.418Z,99657.69
2022-10-23T13:42:55.175Z,99662.97
2022-10-23T13:45:24.359Z,99665.84
2022-10-23T13:47:50.782Z,99654.56
2022-10-23T13:50:17.770Z,99657.53
2022-10-23T13:52:44.592Z,99663.34
2022-10-23T13:55:20.575Z,99659.38
2022-10-23T13:57:47.037Z,99651.88
2022-10-23T14:00:15.051Z,99646.53
2022-10-23T14:02:42.653Z,99647.06
2022-10-23T14:05:09.851Z,99644.88
2022-10-23T14:07:36.233Z,99630.69
2022-10-23T14:10:02.708Z,99627.38
2022-10-23T14:12:29.069Z,99614.47
2022-10-23T14:14:55.396Z,99614.38
2022-10-23T14:17:21.866Z,99611.03
2022-10-23T14:19:48.283Z,99612.47
2022-10-23T14:22:14.628Z,99620.88
2022-10-23T14:24:41.005Z,99631.13
2022-10-23T14:27:07.399Z,99631.72
2022-10-23T14:29:33.791Z,99635.41
2022-10-23T14:32:00.271Z,99628.75
2022-10-23T14:34:26.639Z,99623.88
2022-10-23T14:37:07.309Z,99607.75
2022-10-23T14:39:34.282Z,99613.16
2022-10-23T14:42:00.691Z,99603.47
2022-10-23T14:44:27.112Z,99583.41
2022-10-23T14:46:53.508Z,99587.94
2022-10-23T14:49:20.037Z,99593.31
2022-10-23T14:51:46.380Z,99601.59
2022-10-23T14:54:12.859Z,99598.91
2022-10-23T14:56:40.709Z,99590.56
2022-10-23T14:59:10.659Z,99602.75
2022-10-23T15:01:45.532Z,99593.78
2022-10-23T15:04:15.192Z,99580.59
2022-10-23T15:06:42.287Z,99575.56
2022-10-23T15:09:09.022Z,99582.44
2022-10-23T15:11:35.377Z,99579.13
2022-10-23T15:14:01.777Z,99577.53
2022-10-23T15:16:28.490Z,99570.31
2022-10-23T15:18:54.877Z,99569.31
2022-10-23T15:21:21.403Z,99573.84
2022-10-23T15:23:48.131Z,99567.25
2022-10-23T15:26:20.915Z,99556.34
2022-10-23T15:28:48.431Z,99566.50
2022-10-23T15:31:30.185Z,99562.97
2022-10-23T15:34:00.033Z,99545.88
2022-10-23T15:36:26.950Z,99533.16
2022-10-23T15:38:53.307Z,99528.56
2022-10-23T15:41:29.877Z,99534.69
2022-10-23T15:43:57.628Z,99544.56
2022-10-23T15:46:24.047Z,99536.50
2022-10-23T15:48:50.388Z,99537.56
2022-10-23T15:51:16.785Z,99546.41
2022-10-23T15:53:43.101Z,99525.50
2022-10-23T15:56:09.473Z,99521.69
2022-10-23T15:58:35.818Z,99516.06
2022-10-23T16:01:06.241Z,99519.69
2022-10-23T16:03:34.104Z,99514.66
2022-10-23T16:06:04.398Z,99508.00
2022-10-23T16:08:30.988Z,99501.53
2022-10-23T16:10:59.086Z,99509.63
2022-10-23T16:13:26.539Z,99502.91
2022-10-23T16:15:55.532Z,99496.69
2022-10-23T16:18:22.777Z,99512.59
2022-10-23T16:20:50.900Z,99517.59
2022-10-23T16:23:17.339Z,99520.78
2022-10-23T16:25:43.847Z,99522.78
2022-10-23T16:28:10.184Z,99521.34
2022-10-23T16:30:41.145Z,99516.66
2022-10-23T16:33:07.591Z,99506.56
2022-10-23T16:35:33.985Z,99511.97
2022-10-23T16:38:00.346Z,99515.53
2022-10-23T16:40:26.679Z,99515.91
2022-10-23T16:42:53.046Z,99509.59
2022-10-23T16:45:19.408Z,99493.47
2022-10-23T16:47:45.803Z,99485.03
2022-10-23T16:50:12.140Z,99485.00
2022-10-23T16:52:38.604Z,99483.19
2022-10-23T16:55:05.288Z,99494.25
2022-10-23T16:57:31.631Z,99491.16
2022-10-23T16:59:57.999Z,99492.34
2022-10-23T17:02:24.432Z,99488.03
2022-10-23T17:04:50.951Z,99504.28
2022-10-23T17:07:17.428Z,99510.28
2022-10-23T17:09:46.450Z,99517.28
2022-10-23T17:12:13.997Z,99532.00
2022-10-23T17:14:40.457Z,99541.50
2022-10-23T17:17:09.594Z,99549.34
2022-10-23T17:19:45.236Z,99575.28
2022-10-23T17:22:13.173Z,99600.97
2022-10-23T17:24:41.026Z,99626.09
2022-10-23T17:27:07.836Z,99642.84
2022-10-23T17:29:34.778Z,99640.03
2022-10-23T17:32:01.258Z,99626.88
2022-10-23T17:34:27.711Z,99628.72
2022-10-23T17:36:55.253Z,99629.38
2022-10-23T17:39:24.382Z,99647.53
2022-10-23T17:41:51.266Z,99653.34
2022-10-23T17:44:18.024Z,99662.28
2022-10-23T17:46:44.547Z,99662.72
2022-10-23T17:49:12.053Z,99671.13
2022-10-23T17:51:38.731Z,99671.53
2022-10-23T17:54:09.384Z,99667.78
2022-10-23T17:56:37.530Z,99669.59
2022-10-23T17:59:07.076Z,99670.78
2022-10-23T18:01:33.777Z,99663.28
2022-10-23T18:04:02.606Z,99647.88
2022-10-23T18:06:33.979Z,99640.34
2022-10-23T18:09:02.696Z,99614.22
2022-10-23T18:11:32.337Z,99609.28
2022-10-23T18:16:32.100Z,99594.97
2022-10-23T18:19:01.836Z,99579.16
2022-10-23T18:21:28.417Z,99583.22
2022-10-23T18:23:54.990Z,99585.66
2022-10-23T18:26:25.044Z,99591.22
2022-10-23T18:28:55.429Z,99592.88
2022-10-23T18:31:23.386Z,99592.06
2022-10-23T18:33:49.773Z,99580.97
2022-10-23T18:36:22.695Z,99570.59
2022-10-23T18:38:50.071Z,99576.50
2022-10-23T18:41:17.947Z,99565.66
2022-10-23T18:43:44.817Z,99588.88
2022-10-23T18:46:13.154Z,99585.91
2022-10-23T18:48:40.489Z,99592.66
2022-10-23T18:51:15.878Z,99596.38
2022-10-23T18:53:43.156Z,99604.06
2022-10-23T18:56:09.502Z,99598.75
2022-10-23T18:58:35.883Z,99594.88
2022-10-23T19:01:02.461Z,99593.56
2022-10-23T19:03:28.916Z,99596.38
2022-10-23T19:05:55.287Z,99595.03
2022-10-23T19:08:21.937Z,99608.44
2022-10-23T19:10:50.163Z,99594.53
2022-10-23T19:13:17.101Z,99601.06
2022-10-23T19:15:44.139Z,99613.56
2022-10-23T19:18:11.061Z,99625.91
2022-10-23T19:20:37.752Z,99621.47
2022-10-23T19:23:06.312Z,99614.47
2022-10-23T19:25:34.655Z,99627.13
2022-10-23T19:28:02.353Z,99626.44
2022-10-23T19:30:29.244Z,99629.72
2022-10-23T19:32:55.598Z,99624.34
2022-10-23T19:35:22.517Z,99603.91
2022-10-23T19:37:49.316Z,99601.53
2022-10-23T19:40:15.977Z,99600.94
2022-10-23T19:42:43.610Z,99622.91
2022-10-23T19:45:13.162Z,99625.47
2022-10-23T19:47:40.622Z,99612.25
2022-10-23T19:50:08.995Z,99620.88
2022-10-23T19:52:35.843Z,99623.41
2022-10-23T19:55:03.235Z,99624.63
2022-10-23T19:57:33.624Z,99619.22
2022-10-23T20:00:00.924Z,99607.31
2022-10-23T20:02:28.178Z,99616.22
2022-10-23T20:04:54.652Z,99618.28
2022-10-23T20:07:21.183Z,99623.47
2022-10-23T20:09:47.575Z,99620.97
2022-10-23T20:12:14.071Z,99622.75
2022-10-23T20:14:40.416Z,99629.59
2022-10-23T20:17:06.791Z,99626.84
2022-10-23T20:19:34.262Z,99624.06
2022-10-23T20:22:00.789Z,99639.97
2022-10-23T20:24:27.241Z,99647.63
2022-10-23T20:26:55.231Z,99652.03
2022-10-23T20:29:22.450Z,99655.41
2022-10-23T20:31:48.848Z,99655.31
2022-10-23T20:34:15.287Z,99656.75
2022-10-23T20:36:46.565Z,99656.75
2022-10-23T20:39:24.514Z,99662.41
2022-10-23T20:41:51.347Z,99663.84
2022-10-23T20:44:18.684Z,99647.94
2022-10-23T20:46:45.610Z,99650.72
2022-10-23T20:49:13.059Z,99659.31
2022-10-23T20:51:40.201Z,99659.50
2022-10-23T20:54:06.666Z,99670.44
2022-10-23T20:56:35.780Z,99662.88
2022-10-23T20:59:05.016Z,99674.66
2022-10-23T21:01:33.008Z,99674.06
2022-10-23T21:04:02.213Z,99683.44
2022-10-23T21:06:45.750Z,99684.38
2022-10-23T21:09:18.615Z,99680.53
2022-10-23T21:11:45.260Z,99687.72
2022-10-23T21:14:12.025Z,99679.38
2022-10-23T21:16:44.492Z,99686.56
2022-10-23T21:19:13.856Z,99689.41
2022-10-23T21:21:40.203Z,99692.50
2022-10-23T21:24:09.274Z,99695.53
2022-10-23T21:26:36.318Z,99697.25
2022-10-23T21:29:19.788Z,99706.97
2022-10-23T21:31:58.434Z,99707.72
2022-10-23T21:34:25.886Z,99693.94
2022-10-23T21:37:12.838Z,99705.59
2022-10-23T21:39:38.963Z,99720.09
2022-10-23T21:42:05.510Z,99712.16
2022-10-23T21:44:31.928Z,99715.72
2022-10-23T21:46:58.278Z,99711.88
2022-10-23T21:49:24.682Z,99718.03
2022-10-23T21:51:51.168Z,99715.03
2022-10-23T21:54:17.514Z,99715.41
2022-10-23T21:56:49.258Z,99714.88
2022-10-23T21:59:19.074Z,99711.94
2022-10-23T22:01:47.828Z,99708.72
2022-10-23T22:04:19.889Z,99706.84
2022-10-23T22:06:48.339Z,99706.50
2022-10-23T22:09:17.334Z,99715.03
2022-10-23T22:11:43.715Z,99691.38
2022-10-23T22:14:10.525Z,99701.47
2022-10-23T22:16:37.214Z,99705.78
2022-10-23T22:19:04.169Z,99696.13
2022-10-23T22:21:31.000Z,99700.22
2022-10-23T22:23:59.741Z,99703.28
2022-10-23T22:26:31.875Z,99705.19
2022-10-23T22:29:01.713Z,99701.47
2022-10-23T22:31:30.750Z,99708.63
2022-10-23T22:33:58.375Z,99707.75
2022-10-23T22:36:25.763Z,99709.72
2022-10-23T22:38:53.178Z,99709.63
2022-10-23T22:41:19.935Z,99703.84
2022-10-23T22:43:46.704Z,99709.75
2022-10-23T22:46:18.766Z,99715.94
2022-10-23T22:48:45.683Z,99720.94
2022-10-23T22:51:14.657Z,99722.56
2022-10-23T22:53:41.704Z,99723.19
2022-10-23T22:56:14.879Z,99716.09
2022-10-23T22:58:41.546Z,99711.69
2022-10-23T23:01:14.306Z,99710.16
2022-10-23T23:03:42.528Z,99707.69
2022-10-23T23:06:09.532Z,99703.97
2022-10-23T23:08:37.635Z,99704.03
2022-10-23T23:11:05.143Z,99703.78
2022-10-23T23:13:31.924Z,99705.13
2022-10-23T23:15:58.812Z,99702.13
2022-10-23T23:18:25.416Z,99703.56
2022-10-23T23:20:51.812Z,99697.66
2022-10-23T23:23:18.659Z,99701.84
2022-10-23T23:25:47.393Z,99704.59
2022-10-23T23:28:16.059Z,99712.16
2022-10-23T23:30:43.051Z,99702.78
2022-10-23T23:33:10.575Z,99710.97
2022-10-23T23:35:45.086Z,99716.91
2022-10-23T23:38:13.022Z,99721.22
2022-10-23T23:40:40.237Z,99720.16
2022-10-23T23:43:07.045Z,99721.72
2022-10-23T23:45:33.771Z,99723.44
2022-10-23T23:48:00.355Z,99720.63
2022-10-23T23:50:27.924Z,99716.69
2022-10-23T23:52:54.314Z,99721.22
2022-10-23T23:55:20.682Z,99716.06
2022-10-23T23:57:47.350Z,99720.06
